Time;durP1;ratioP1;P1;durP2;ratioP2;P2;SDS_P1;SDS_P2;PMS_P1;PMS_P2;Temp;Humidity;BMP_temperature;BMP_pressure;BME280_temperature;BME280_humidity;BME280_pressure;Samples;Min_cycle;Max_cycle;Signal;HPM_P1;HPM_P2
2022/05/14 00:00:07;;;;;;;17.05;14.55;;;;;;;13;82.39063;95780.49;;;;
2022/05/14 00:01:08;;;;;;;17.05;14.55;;;;;;;13;82.39063;95780.49;;;;
2022/05/14 00:02:09;;;;;;;17.05;14.55;;;;;;;13;82.39063;95780.49;;;;
2022/05/14 00:03:11;;;;;;;17.05;14.55;;;;;;;13;82.39063;95780.49;;;;
2022/05/14 00:04:11;;;;;;;17.05;14.55;;;;;;;13;82.39063;95780.49;;;;
2022/05/14 00:05:12;;;;;;;17.05;14.55;;;;;;;13;82.39063;95780.49;;;;
2022/05/14 00:06:12;;;;;;;17.05;14.55;;;;;;;13;82.39063;95780.49;;;;
2022/05/14 00:07:17;;;;;;;17.05;14.55;;;;;;;13;82.39063;95780.49;;;;
2022/05/14 00:08:18;;;;;;;17.05;14.55;;;;;;;13;82.39063;95780.49;;;;
2022/05/14 00:09:19;;;;;;;17.05;14.55;;;;;;;13;82.39063;95780.49;;;;
2022/05/14 00:10:19;;;;;;;17.05;14.55;;;;;;;13;82.39063;95780.49;;;;
2022/05/14 00:16:38;;;;;;;20.05;15.8;;;;;;;13.29;82.42188;95776.45;;;;
2022/05/14 00:17:38;;;;;;;20.05;15.8;;;;;;;13.29;82.42188;95776.45;;;;
2022/05/14 00:18:39;;;;;;;20.05;15.8;;;;;;;13.29;82.42188;95776.45;;;;
2022/05/14 00:19:40;;;;;;;20.05;15.8;;;;;;;13.29;82.42188;95776.45;;;;
2022/05/14 00:20:41;;;;;;;20.05;15.8;;;;;;;13.29;82.42188;95776.45;;;;
2022/05/14 00:21:41;;;;;;;20.05;15.8;;;;;;;13.29;82.42188;95776.45;;;;
2022/05/14 00:22:42;;;;;;;15.6;14;;;;;;;13.32;82.37305;95772.54;;;;
2022/05/14 00:23:43;;;;;;;15.6;14;;;;;;;13.32;82.37305;95772.54;;;;
2022/05/14 00:24:43;;;;;;;15.6;14;;;;;;;13.32;82.37305;95772.54;;;;
2022/05/14 00:25:44;;;;;;;15.6;14;;;;;;;13.32;82.37305;95772.54;;;;
2022/05/14 00:26:45;;;;;;;15.6;14;;;;;;;13.32;82.37305;95772.54;;;;
2022/05/14 00:27:46;;;;;;;15.6;14;;;;;;;13.32;82.37305;95772.54;;;;
2022/05/14 00:28:47;;;;;;;15.6;14;;;;;;;13.32;82.37305;95772.54;;;;
2022/05/14 00:29:47;;;;;;;15.6;14;;;;;;;13.32;82.37305;95772.54;;;;
2022/05/14 00:30:48;;;;;;;15.6;14;;;;;;;13.32;82.37305;95772.54;;;;
2022/05/14 00:31:49;;;;;;;15.6;14;;;;;;;13.32;82.37305;95772.54;;;;
2022/05/14 00:32:49;;;;;;;15.6;14;;;;;;;13.32;82.37305;95772.54;;;;
2022/05/14 00:33:50;;;;;;;16.75;14.5;;;;;;;13.46;82.55176;95776.61;;;;
2022/05/14 00:34:51;;;;;;;16.75;14.5;;;;;;;13.46;82.55176;95776.61;;;;
2022/05/14 00:35:51;;;;;;;16.75;14.5;;;;;;;13.46;82.55176;95776.61;;;;
2022/05/14 00:36:52;;;;;;;16.75;14.5;;;;;;;13.46;82.55176;95776.61;;;;
2022/05/14 00:37:52;;;;;;;16.75;14.5;;;;;;;13.46;82.55176;95776.61;;;;
2022/05/14 00:38:54;;;;;;;16.75;14.5;;;;;;;13.46;82.55176;95776.61;;;;
2022/05/14 00:39:54;;;;;;;16.75;14.5;;;;;;;13.46;82.55176;95776.61;;;;
2022/05/14 00:40:55;;;;;;;16.75;14.5;;;;;;;13.46;82.55176;95776.61;;;;
2022/05/14 00:41:58;;;;;;;16.75;14.5;;;;;;;13.46;82.55176;95776.61;;;;
2022/05/14 00:42:59;;;;;;;16.75;14.5;;;;;;;13.46;82.55176;95776.61;;;;
2022/05/14 00:44:00;;;;;;;16.2;14.5;;;;;;;13.56;82.4834;95755.27;;;;
2022/05/14 00:45:01;;;;;;;16.2;14.5;;;;;;;13.56;82.4834;95755.27;;;;
2022/05/14 00:46:01;;;;;;;16.2;14.5;;;;;;;13.56;82.4834;95755.27;;;;
2022/05/14 00:47:16;;;;;;;16.2;14.5;;;;;;;13.56;82.4834;95755.27;;;;
2022/05/14 00:48:18;;;;;;;16.2;14.5;;;;;;;13.56;82.4834;95755.27;;;;
2022/05/14 00:49:18;;;;;;;16.2;14.5;;;;;;;13.56;82.4834;95755.27;;;;
2022/05/14 00:50:23;;;;;;;16.2;14.5;;;;;;;13.56;82.4834;95755.27;;;;
2022/05/14 00:51:28;;;;;;;16.2;14.5;;;;;;;13.56;82.4834;95755.27;;;;
2022/05/14 00:52:29;;;;;;;16.2;14.5;;;;;;;13.56;82.4834;95755.27;;;;
2022/05/14 00:53:30;;;;;;;16.2;14.5;;;;;;;13.56;82.4834;95755.27;;;;
2022/05/14 00:54:35;;;;;;;15.1;13.5;;;;;;;13.57;82.6377;95757.3;;;;
2022/05/14 00:55:41;;;;;;;15.1;13.5;;;;;;;13.57;82.6377;95757.3;;;;
2022/05/14 00:56:46;;;;;;;15.1;13.5;;;;;;;13.57;82.6377;95757.3;;;;
2022/05/14 00:57:50;;;;;;;15.1;13.5;;;;;;;13.57;82.6377;95757.3;;;;
2022/05/14 00:58:51;;;;;;;15.1;13.5;;;;;;;13.57;82.6377;95757.3;;;;
2022/05/14 00:59:57;;;;;;;15.1;13.5;;;;;;;13.57;82.6377;95757.3;;;;
2022/05/14 01:01:00;;;;;;;15.1;13.5;;;;;;;13.57;82.6377;95757.3;;;;
2022/05/14 01:02:00;;;;;;;15.1;13.5;;;;;;;13.57;82.6377;95757.3;;;;
2022/05/14 01:03:01;;;;;;;15.1;13.5;;;;;;;13.57;82.6377;95757.3;;;;
2022/05/14 01:04:02;;;;;;;15.1;13.5;;;;;;;13.57;82.6377;95757.3;;;;
2022/05/14 01:05:03;;;;;;;15.1;13.5;;;;;;;13.57;82.6377;95757.3;;;;
2022/05/14 01:06:04;;;;;;;14.45;13.05;;;;;;;13.33;82.67676;95763.53;;;;
2022/05/14 01:07:08;;;;;;;14.45;13.05;;;;;;;13.33;82.67676;95763.53;;;;
2022/05/14 01:08:13;;;;;;;14.45;13.05;;;;;;;13.33;82.67676;95763.53;;;;
2022/05/14 01:09:14;;;;;;;14.45;13.05;;;;;;;13.33;82.67676;95763.53;;;;
2022/05/14 01:10:16;;;;;;;14.45;13.05;;;;;;;13.33;82.67676;95763.53;;;;
2022/05/14 01:11:18;;;;;;;14.45;13.05;;;;;;;13.33;82.67676;95763.53;;;;
2022/05/14 01:12:20;;;;;;;14.45;13.05;;;;;;;13.33;82.67676;95763.53;;;;
2022/05/14 01:13:23;;;;;;;14.45;13.05;;;;;;;13.33;82.67676;95763.53;;;;
2022/05/14 01:14:24;;;;;;;14.45;13.05;;;;;;;13.33;82.67676;95763.53;;;;
2022/05/14 01:15:24;;;;;;;14.45;13.05;;;;;;;13.33;82.67676;95763.53;;;;
2022/05/14 01:16:40;;;;;;;13.85;12.6;;;;;;;12.93;83.05762;95755.86;;;;
2022/05/14 01:17:41;;;;;;;13.85;12.6;;;;;;;12.93;83.05762;95755.86;;;;
2022/05/14 01:18:42;;;;;;;13.85;12.6;;;;;;;12.93;83.05762;95755.86;;;;
2022/05/14 01:19:42;;;;;;;13.85;12.6;;;;;;;12.93;83.05762;95755.86;;;;
2022/05/14 01:20:43;;;;;;;13.85;12.6;;;;;;;12.93;83.05762;95755.86;;;;
2022/05/14 01:21:51;;;;;;;13.85;12.6;;;;;;;12.93;83.05762;95755.86;;;;
2022/05/14 01:23:06;;;;;;;13.85;12.6;;;;;;;12.93;83.05762;95755.86;;;;
2022/05/14 01:29:32;;;;;;;14.5;13.05;;;;;;;12.51;83.33398;95751.59;;;;
2022/05/14 01:30:34;;;;;;;14.5;13.05;;;;;;;12.51;83.33398;95751.59;;;;
2022/05/14 01:31:42;;;;;;;14.5;13.05;;;;;;;12.51;83.33398;95751.59;;;;
2022/05/14 01:32:43;;;;;;;14.5;13.05;;;;;;;12.51;83.33398;95751.59;;;;
2022/05/14 01:33:45;;;;;;;14.5;13.05;;;;;;;12.51;83.33398;95751.59;;;;
2022/05/14 01:34:46;;;;;;;14.5;13.05;;;;;;;12.51;83.33398;95751.59;;;;
2022/05/14 01:35:47;;;;;;;14.5;13.05;;;;;;;12.51;83.33398;95751.59;;;;
2022/05/14 01:36:48;;;;;;;14.5;13.05;;;;;;;12.51;83.33398;95751.59;;;;
2022/05/14 01:37:48;;;;;;;14.75;13.2;;;;;;;12.18;83.75488;95741.77;;;;
2022/05/14 01:38:49;;;;;;;14.75;13.2;;;;;;;12.18;83.75488;95741.77;;;;
2022/05/14 01:39:50;;;;;;;14.75;13.2;;;;;;;12.18;83.75488;95741.77;;;;
2022/05/14 01:40:51;;;;;;;14.75;13.2;;;;;;;12.18;83.75488;95741.77;;;;
2022/05/14 01:41:52;;;;;;;14.75;13.2;;;;;;;12.18;83.75488;95741.77;;;;
2022/05/14 01:42:53;;;;;;;14.75;13.2;;;;;;;12.18;83.75488;95741.77;;;;
2022/05/14 01:43:53;;;;;;;14.75;13.2;;;;;;;12.18;83.75488;95741.77;;;;
2022/05/14 01:44:54;;;;;;;14.75;13.2;;;;;;;12.18;83.75488;95741.77;;;;
2022/05/14 01:45:54;;;;;;;14.75;13.2;;;;;;;12.18;83.75488;95741.77;;;;
2022/05/14 01:46:55;;;;;;;14.75;13.2;;;;;;;12.18;83.75488;95741.77;;;;
2022/05/14 01:47:55;;;;;;;15;13.5;;;;;;;12.01;83.9375;95742.36;;;;
2022/05/14 01:48:56;;;;;;;15;13.5;;;;;;;12.01;83.9375;95742.36;;;;
2022/05/14 01:49:57;;;;;;;15;13.5;;;;;;;12.01;83.9375;95742.36;;;;
2022/05/14 01:50:58;;;;;;;15;13.5;;;;;;;12.01;83.9375;95742.36;;;;
2022/05/14 01:51:59;;;;;;;15;13.5;;;;;;;12.01;83.9375;95742.36;;;;
2022/05/14 01:52:59;;;;;;;15;13.5;;;;;;;12.01;83.9375;95742.36;;;;
2022/05/14 01:54:00;;;;;;;15;13.5;;;;;;;12.01;83.9375;95742.36;;;;
2022/05/14 01:55:02;;;;;;;15;13.5;;;;;;;12.01;83.9375;95742.36;;;;
2022/05/14 01:56:03;;;;;;;15;13.5;;;;;;;12.01;83.9375;95742.36;;;;
2022/05/14 01:57:04;;;;;;;15;13.5;;;;;;;12.01;83.9375;95742.36;;;;
2022/05/14 01:58:36;;;;;;;15;13.5;;;;;;;12.01;83.9375;95742.36;;;;
2022/05/14 01:59:36;;;;;;;14.85;13.35;;;;;;;11.88;83.94531;95750.76;;;;
2022/05/14 02:00:37;;;;;;;14.85;13.35;;;;;;;11.88;83.94531;95750.76;;;;
2022/05/14 02:01:37;;;;;;;14.85;13.35;;;;;;;11.88;83.94531;95750.76;;;;
2022/05/14 02:02:38;;;;;;;14.85;13.35;;;;;;;11.88;83.94531;95750.76;;;;
2022/05/14 02:03:39;;;;;;;14.85;13.35;;;;;;;11.88;83.94531;95750.76;;;;
2022/05/14 02:04:42;;;;;;;14.85;13.35;;;;;;;11.88;83.94531;95750.76;;;;
2022/05/14 02:05:42;;;;;;;14.85;13.35;;;;;;;11.88;83.94531;95750.76;;;;
2022/05/14 02:06:43;;;;;;;14.85;13.35;;;;;;;11.88;83.94531;95750.76;;;;
2022/05/14 02:07:44;;;;;;;14.85;13.35;;;;;;;11.88;83.94531;95750.76;;;;
2022/05/14 02:08:45;;;;;;;14.85;13.35;;;;;;;11.88;83.94531;95750.76;;;;
2022/05/14 02:09:46;;;;;;;16.35;14.75;;;;;;;12.03;84.12305;95739.9;;;;
2022/05/14 02:10:46;;;;;;;16.35;14.75;;;;;;;12.03;84.12305;95739.9;;;;
2022/05/14 02:11:47;;;;;;;16.35;14.75;;;;;;;12.03;84.12305;95739.9;;;;
2022/05/14 02:12:47;;;;;;;16.35;14.75;;;;;;;12.03;84.12305;95739.9;;;;
2022/05/14 02:13:48;;;;;;;16.35;14.75;;;;;;;12.03;84.12305;95739.9;;;;
2022/05/14 02:14:50;;;;;;;16.35;14.75;;;;;;;12.03;84.12305;95739.9;;;;
2022/05/14 02:15:51;;;;;;;16.35;14.75;;;;;;;12.03;84.12305;95739.9;;;;
2022/05/14 02:16:51;;;;;;;16.35;14.75;;;;;;;12.03;84.12305;95739.9;;;;
2022/05/14 02:17:52;;;;;;;16.35;14.75;;;;;;;12.03;84.12305;95739.9;;;;
2022/05/14 02:18:53;;;;;;;16.35;14.75;;;;;;;12.03;84.12305;95739.9;;;;
2022/05/14 02:19:53;;;;;;;16.35;14.75;;;;;;;12.03;84.12305;95739.9;;;;
2022/05/14 02:20:54;;;;;;;17.6;15.85;;;;;;;12.04;83.99707;95737.46;;;;
2022/05/14 02:21:54;;;;;;;17.6;15.85;;;;;;;12.04;83.99707;95737.46;;;;
2022/05/14 02:22:55;;;;;;;17.6;15.85;;;;;;;12.04;83.99707;95737.46;;;;
2022/05/14 02:23:56;;;;;;;17.6;15.85;;;;;;;12.04;83.99707;95737.46;;;;
2022/05/14 02:24:56;;;;;;;17.6;15.85;;;;;;;12.04;83.99707;95737.46;;;;
2022/05/14 02:25:57;;;;;;;17.6;15.85;;;;;;;12.04;83.99707;95737.46;;;;
2022/05/14 02:26:57;;;;;;;17.6;15.85;;;;;;;12.04;83.99707;95737.46;;;;
2022/05/14 02:27:58;;;;;;;17.6;15.85;;;;;;;12.04;83.99707;95737.46;;;;
2022/05/14 02:28:58;;;;;;;17.6;15.85;;;;;;;12.04;83.99707;95737.46;;;;
2022/05/14 02:29:59;;;;;;;17.6;15.85;;;;;;;12.04;83.99707;95737.46;;;;
2022/05/14 02:30:59;;;;;;;16.15;14.55;;;;;;;11.94;84.09766;95735.35;;;;
2022/05/14 02:32:00;;;;;;;16.15;14.55;;;;;;;11.94;84.09766;95735.35;;;;
2022/05/14 02:33:01;;;;;;;16.15;14.55;;;;;;;11.94;84.09766;95735.35;;;;
2022/05/14 02:34:02;;;;;;;16.15;14.55;;;;;;;11.94;84.09766;95735.35;;;;
2022/05/14 02:35:02;;;;;;;16.15;14.55;;;;;;;11.94;84.09766;95735.35;;;;
2022/05/14 02:36:04;;;;;;;16.15;14.55;;;;;;;11.94;84.09766;95735.35;;;;
2022/05/14 02:37:06;;;;;;;16.15;14.55;;;;;;;11.94;84.09766;95735.35;;;;
2022/05/14 02:38:07;;;;;;;16.15;14.55;;;;;;;11.94;84.09766;95735.35;;;;
2022/05/14 02:39:08;;;;;;;16.15;14.55;;;;;;;11.94;84.09766;95735.35;;;;
2022/05/14 02:40:09;;;;;;;16.15;14.55;;;;;;;11.94;84.09766;95735.35;;;;
2022/05/14 02:41:12;;;;;;;16.15;14.55;;;;;;;11.94;84.09766;95735.35;;;;
2022/05/14 02:42:13;;;;;;;17.7;15.1;;;;;;;11.8;84.23047;95717.88;;;;
2022/05/14 02:43:13;;;;;;;17.7;15.1;;;;;;;11.8;84.23047;95717.88;;;;
2022/05/14 02:44:16;;;;;;;17.7;15.1;;;;;;;11.8;84.23047;95717.88;;;;
2022/05/14 02:45:16;;;;;;;17.7;15.1;;;;;;;11.8;84.23047;95717.88;;;;
2022/05/14 02:46:16;;;;;;;17.7;15.1;;;;;;;11.8;84.23047;95717.88;;;;
2022/05/14 02:47:17;;;;;;;17.7;15.1;;;;;;;11.8;84.23047;95717.88;;;;
2022/05/14 02:48:18;;;;;;;17.7;15.1;;;;;;;11.8;84.23047;95717.88;;;;
2022/05/14 02:49:19;;;;;;;17.7;15.1;;;;;;;11.8;84.23047;95717.88;;;;
2022/05/14 02:50:19;;;;;;;17.7;15.1;;;;;;;11.8;84.23047;95717.88;;;;
2022/05/14 02:51:20;;;;;;;17.7;15.1;;;;;;;11.8;84.23047;95717.88;;;;
2022/05/14 02:52:21;;;;;;;17.25;14.5;;;;;;;11.64;84.39355;95720.56;;;;
2022/05/14 02:53:22;;;;;;;17.25;14.5;;;;;;;11.64;84.39355;95720.56;;;;
2022/05/14 02:54:22;;;;;;;17.25;14.5;;;;;;;11.64;84.39355;95720.56;;;;
2022/05/14 02:55:23;;;;;;;17.25;14.5;;;;;;;11.64;84.39355;95720.56;;;;
2022/05/14 02:56:24;;;;;;;17.25;14.5;;;;;;;11.64;84.39355;95720.56;;;;
2022/05/14 02:57:24;;;;;;;17.25;14.5;;;;;;;11.64;84.39355;95720.56;;;;
2022/05/14 02:59:30;;;;;;;17.25;14.5;;;;;;;11.64;84.39355;95720.56;;;;
2022/05/14 03:00:30;;;;;;;17.25;14.5;;;;;;;11.64;84.39355;95720.56;;;;
2022/05/14 03:01:31;;;;;;;17.25;14.5;;;;;;;11.64;84.39355;95720.56;;;;
2022/05/14 03:02:31;;;;;;;17.25;14.5;;;;;;;11.64;84.39355;95720.56;;;;
2022/05/14 03:03:32;;;;;;;16.8;14.9;;;;;;;11.38;84.50586;95728.41;;;;
2022/05/14 03:04:36;;;;;;;16.8;14.9;;;;;;;11.38;84.50586;95728.41;;;;
2022/05/14 03:05:39;;;;;;;16.8;14.9;;;;;;;11.38;84.50586;95728.41;;;;
2022/05/14 03:06:39;;;;;;;16.8;14.9;;;;;;;11.38;84.50586;95728.41;;;;
2022/05/14 03:07:40;;;;;;;16.8;14.9;;;;;;;11.38;84.50586;95728.41;;;;
2022/05/14 03:08:41;;;;;;;16.8;14.9;;;;;;;11.38;84.50586;95728.41;;;;
2022/05/14 03:09:41;;;;;;;16.8;14.9;;;;;;;11.38;84.50586;95728.41;;;;
2022/05/14 03:10:42;;;;;;;16.8;14.9;;;;;;;11.38;84.50586;95728.41;;;;
2022/05/14 03:11:43;;;;;;;16.8;14.9;;;;;;;11.38;84.50586;95728.41;;;;
2022/05/14 03:12:43;;;;;;;16.8;14.9;;;;;;;11.38;84.50586;95728.41;;;;
2022/05/14 03:13:44;;;;;;;16.55;14.7;;;;;;;11.32;84.86914;95733.29;;;;
2022/05/14 03:14:44;;;;;;;16.55;14.7;;;;;;;11.32;84.86914;95733.29;;;;
2022/05/14 03:15:45;;;;;;;16.55;14.7;;;;;;;11.32;84.86914;95733.29;;;;
2022/05/14 03:16:45;;;;;;;16.55;14.7;;;;;;;11.32;84.86914;95733.29;;;;
2022/05/14 03:17:46;;;;;;;16.55;14.7;;;;;;;11.32;84.86914;95733.29;;;;
2022/05/14 03:18:46;;;;;;;16.55;14.7;;;;;;;11.32;84.86914;95733.29;;;;
2022/05/14 03:19:47;;;;;;;16.55;14.7;;;;;;;11.32;84.86914;95733.29;;;;
2022/05/14 03:20:47;;;;;;;16.55;14.7;;;;;;;11.32;84.86914;95733.29;;;;
2022/05/14 03:21:48;;;;;;;16.55;14.7;;;;;;;11.32;84.86914;95733.29;;;;
2022/05/14 03:22:49;;;;;;;16.55;14.7;;;;;;;11.32;84.86914;95733.29;;;;
2022/05/14 03:23:49;;;;;;;16.55;14.7;;;;;;;11.32;84.86914;95733.29;;;;
2022/05/14 03:24:51;;;;;;;16.55;14.7;;;;;;;11.32;84.86914;95733.29;;;;
2022/05/14 03:25:51;;;;;;;16.55;14.7;;;;;;;11.32;84.86914;95733.29;;;;
2022/05/14 03:26:52;;;;;;;16.55;14.7;;;;;;;11.32;84.86914;95733.29;;;;
2022/05/14 03:27:53;;;;;;;16.55;14.7;;;;;;;11.32;84.86914;95733.29;;;;
2022/05/14 03:28:53;;;;;;;16.55;14.7;;;;;;;11.32;84.86914;95733.29;;;;
2022/05/14 03:29:54;;;;;;;16.55;14.7;;;;;;;11.32;84.86914;95733.29;;;;
2022/05/14 03:30:56;;;;;;;16.55;14.7;;;;;;;11.32;84.86914;95733.29;;;;
2022/05/14 03:31:57;;;;;;;16.55;14.7;;;;;;;11.32;84.86914;95733.29;;;;
2022/05/14 03:32:57;;;;;;;16.55;14.7;;;;;;;11.32;84.86914;95733.29;;;;
2022/05/14 03:33:58;;;;;;;16.55;14.7;;;;;;;11.32;84.86914;95733.29;;;;
2022/05/14 03:35:02;;;;;;;19.85;17.85;;;;;;;11.71;84.73047;95741.62;;;;
2022/05/14 03:36:03;;;;;;;19.85;17.85;;;;;;;11.71;84.73047;95741.62;;;;
2022/05/14 03:37:04;;;;;;;19.85;17.85;;;;;;;11.71;84.73047;95741.62;;;;
2022/05/14 03:38:05;;;;;;;19.85;17.85;;;;;;;11.71;84.73047;95741.62;;;;
2022/05/14 03:39:06;;;;;;;19.85;17.85;;;;;;;11.71;84.73047;95741.62;;;;
2022/05/14 03:40:08;;;;;;;19.85;17.85;;;;;;;11.71;84.73047;95741.62;;;;
2022/05/14 03:41:10;;;;;;;19.85;17.85;;;;;;;11.71;84.73047;95741.62;;;;
2022/05/14 03:42:10;;;;;;;19.85;17.85;;;;;;;11.71;84.73047;95741.62;;;;
2022/05/14 03:43:11;;;;;;;19.85;17.85;;;;;;;11.71;84.73047;95741.62;;;;
2022/05/14 03:44:11;;;;;;;19.85;17.85;;;;;;;11.71;84.73047;95741.62;;;;
2022/05/14 03:45:12;;;;;;;19.85;17.85;;;;;;;11.71;84.73047;95741.62;;;;
2022/05/14 03:46:12;;;;;;;16.75;15.05;;;;;;;11.73;84.64746;95751.09;;;;
2022/05/14 03:47:15;;;;;;;16.75;15.05;;;;;;;11.73;84.64746;95751.09;;;;
2022/05/14 03:48:15;;;;;;;16.75;15.05;;;;;;;11.73;84.64746;95751.09;;;;
2022/05/14 03:49:16;;;;;;;16.75;15.05;;;;;;;11.73;84.64746;95751.09;;;;
2022/05/14 03:50:16;;;;;;;16.75;15.05;;;;;;;11.73;84.64746;95751.09;;;;
2022/05/14 03:51:17;;;;;;;16.75;15.05;;;;;;;11.73;84.64746;95751.09;;;;
2022/05/14 03:52:17;;;;;;;16.75;15.05;;;;;;;11.73;84.64746;95751.09;;;;
2022/05/14 03:53:18;;;;;;;16.75;15.05;;;;;;;11.73;84.64746;95751.09;;;;
2022/05/14 03:54:19;;;;;;;16.75;15.05;;;;;;;11.73;84.64746;95751.09;;;;
2022/05/14 03:55:19;;;;;;;16.75;15.05;;;;;;;11.73;84.64746;95751.09;;;;
2022/05/14 03:56:20;;;;;;;20;16.7;;;;;;;11.72;84.75391;95751.18;;;;
2022/05/14 03:57:20;;;;;;;20;16.7;;;;;;;11.72;84.75391;95751.18;;;;
2022/05/14 03:58:21;;;;;;;20;16.7;;;;;;;11.72;84.75391;95751.18;;;;
2022/05/14 03:59:21;;;;;;;20;16.7;;;;;;;11.72;84.75391;95751.18;;;;
2022/05/14 04:00:22;;;;;;;20;16.7;;;;;;;11.72;84.75391;95751.18;;;;
2022/05/14 04:01:22;;;;;;;20;16.7;;;;;;;11.72;84.75391;95751.18;;;;
2022/05/14 04:02:23;;;;;;;20;16.7;;;;;;;11.72;84.75391;95751.18;;;;
2022/05/14 04:03:24;;;;;;;20;16.7;;;;;;;11.72;84.75391;95751.18;;;;
2022/05/14 04:04:25;;;;;;;20;16.7;;;;;;;11.72;84.75391;95751.18;;;;
2022/05/14 04:05:25;;;;;;;20;16.7;;;;;;;11.72;84.75391;95751.18;;;;
2022/05/14 04:06:26;;;;;;;20;16.7;;;;;;;11.72;84.75391;95751.18;;;;
2022/05/14 04:07:27;;;;;;;20.85;18.8;;;;;;;12.06;84.80762;95751.42;;;;
2022/05/14 04:08:27;;;;;;;20.85;18.8;;;;;;;12.06;84.80762;95751.42;;;;
2022/05/14 04:09:28;;;;;;;20.85;18.8;;;;;;;12.06;84.80762;95751.42;;;;
2022/05/14 04:10:29;;;;;;;20.85;18.8;;;;;;;12.06;84.80762;95751.42;;;;
2022/05/14 04:11:30;;;;;;;20.85;18.8;;;;;;;12.06;84.80762;95751.42;;;;
2022/05/14 04:12:31;;;;;;;20.85;18.8;;;;;;;12.06;84.80762;95751.42;;;;
2022/05/14 04:13:32;;;;;;;20.85;18.8;;;;;;;12.06;84.80762;95751.42;;;;
2022/05/14 04:14:33;;;;;;;20.85;18.8;;;;;;;12.06;84.80762;95751.42;;;;
2022/05/14 04:15:33;;;;;;;20.85;18.8;;;;;;;12.06;84.80762;95751.42;;;;
2022/05/14 04:16:34;;;;;;;20.85;18.8;;;;;;;12.06;84.80762;95751.42;;;;
2022/05/14 04:17:35;;;;;;;22.25;20;;;;;;;12.35;84.6377;95761.9;;;;
2022/05/14 04:18:35;;;;;;;22.25;20;;;;;;;12.35;84.6377;95761.9;;;;
2022/05/14 04:19:36;;;;;;;22.25;20;;;;;;;12.35;84.6377;95761.9;;;;
2022/05/14 04:20:37;;;;;;;22.25;20;;;;;;;12.35;84.6377;95761.9;;;;
2022/05/14 04:21:38;;;;;;;22.25;20;;;;;;;12.35;84.6377;95761.9;;;;
2022/05/14 04:22:38;;;;;;;22.25;20;;;;;;;12.35;84.6377;95761.9;;;;
2022/05/14 04:23:39;;;;;;;22.25;20;;;;;;;12.35;84.6377;95761.9;;;;
2022/05/14 04:24:39;;;;;;;22.25;20;;;;;;;12.35;84.6377;95761.9;;;;
2022/05/14 04:25:40;;;;;;;22.25;20;;;;;;;12.35;84.6377;95761.9;;;;
2022/05/14 04:26:40;;;;;;;22.25;20;;;;;;;12.35;84.6377;95761.9;;;;
2022/05/14 04:27:41;;;;;;;22.25;20;;;;;;;12.35;84.6377;95761.9;;;;
2022/05/14 04:28:42;;;;;;;22.25;20;;;;;;;12.35;84.6377;95761.9;;;;
2022/05/14 04:29:42;;;;;;;22.25;20;;;;;;;12.35;84.6377;95761.9;;;;
2022/05/14 04:30:43;;;;;;;22.25;20;;;;;;;12.35;84.6377;95761.9;;;;
2022/05/14 04:31:45;;;;;;;22.25;20;;;;;;;12.35;84.6377;95761.9;;;;
2022/05/14 04:32:45;;;;;;;22.25;20;;;;;;;12.35;84.6377;95761.9;;;;
2022/05/14 04:33:46;;;;;;;22.25;20;;;;;;;12.35;84.6377;95761.9;;;;
2022/05/14 04:34:47;;;;;;;22.25;20;;;;;;;12.35;84.6377;95761.9;;;;
2022/05/14 04:35:48;;;;;;;22.25;20;;;;;;;12.35;84.6377;95761.9;;;;
2022/05/14 04:36:48;;;;;;;22.25;20;;;;;;;12.35;84.6377;95761.9;;;;
2022/05/14 04:37:49;;;;;;;22.25;20;;;;;;;12.35;84.6377;95761.9;;;;
2022/05/14 04:38:49;;;;;;;19.05;17.05;;;;;;;12.96;84.45313;95759.91;;;;
2022/05/14 04:39:50;;;;;;;19.05;17.05;;;;;;;12.96;84.45313;95759.91;;;;
2022/05/14 04:40:50;;;;;;;19.05;17.05;;;;;;;12.96;84.45313;95759.91;;;;
2022/05/14 04:41:51;;;;;;;19.05;17.05;;;;;;;12.96;84.45313;95759.91;;;;
2022/05/14 04:42:51;;;;;;;19.05;17.05;;;;;;;12.96;84.45313;95759.91;;;;
2022/05/14 04:43:52;;;;;;;19.05;17.05;;;;;;;12.96;84.45313;95759.91;;;;
2022/05/14 04:44:52;;;;;;;19.05;17.05;;;;;;;12.96;84.45313;95759.91;;;;
2022/05/14 04:45:53;;;;;;;19.05;17.05;;;;;;;12.96;84.45313;95759.91;;;;
2022/05/14 04:46:53;;;;;;;19.05;17.05;;;;;;;12.96;84.45313;95759.91;;;;
2022/05/14 04:47:54;;;;;;;19.05;17.05;;;;;;;12.96;84.45313;95759.91;;;;
2022/05/14 04:48:55;;;;;;;19.05;17.05;;;;;;;12.96;84.45313;95759.91;;;;
2022/05/14 04:49:55;;;;;;;18;16.25;;;;;;;13.31;84.43359;95768.68;;;;
2022/05/14 04:50:56;;;;;;;18;16.25;;;;;;;13.31;84.43359;95768.68;;;;
2022/05/14 04:51:56;;;;;;;18;16.25;;;;;;;13.31;84.43359;95768.68;;;;
2022/05/14 04:52:57;;;;;;;18;16.25;;;;;;;13.31;84.43359;95768.68;;;;
2022/05/14 04:53:58;;;;;;;18;16.25;;;;;;;13.31;84.43359;95768.68;;;;
2022/05/14 04:54:58;;;;;;;18;16.25;;;;;;;13.31;84.43359;95768.68;;;;
2022/05/14 04:55:59;;;;;;;18;16.25;;;;;;;13.31;84.43359;95768.68;;;;
2022/05/14 04:56:59;;;;;;;18;16.25;;;;;;;13.31;84.43359;95768.68;;;;
2022/05/14 04:58:00;;;;;;;18;16.25;;;;;;;13.31;84.43359;95768.68;;;;
2022/05/14 04:59:00;;;;;;;18;16.25;;;;;;;13.31;84.43359;95768.68;;;;
2022/05/14 05:00:01;;;;;;;18;16.25;;;;;;;13.31;84.43359;95768.68;;;;
2022/05/14 05:01:02;;;;;;;18.85;16.9;;;;;;;13.62;84.2334;95771.25;;;;
2022/05/14 05:07:13;;;;;;;18.85;16.9;;;;;;;13.62;84.2334;95771.25;;;;
2022/05/14 05:08:13;;;;;;;18.85;16.9;;;;;;;13.62;84.2334;95771.25;;;;
2022/05/14 05:09:14;;;;;;;18.85;16.9;;;;;;;13.62;84.2334;95771.25;;;;
2022/05/14 05:10:15;;;;;;;18.85;16.9;;;;;;;13.62;84.2334;95771.25;;;;
2022/05/14 05:11:15;;;;;;;17.4;15.85;;;;;;;14.19;83.99707;95778.85;;;;
2022/05/14 05:12:16;;;;;;;17.4;15.85;;;;;;;14.19;83.99707;95778.85;;;;
2022/05/14 05:13:16;;;;;;;17.4;15.85;;;;;;;14.19;83.99707;95778.85;;;;
2022/05/14 05:14:19;;;;;;;17.4;15.85;;;;;;;14.19;83.99707;95778.85;;;;
2022/05/14 05:15:19;;;;;;;17.4;15.85;;;;;;;14.19;83.99707;95778.85;;;;
2022/05/14 05:16:20;;;;;;;17.4;15.85;;;;;;;14.19;83.99707;95778.85;;;;
2022/05/14 05:17:21;;;;;;;17.4;15.85;;;;;;;14.19;83.99707;95778.85;;;;
2022/05/14 05:18:21;;;;;;;17.4;15.85;;;;;;;14.19;83.99707;95778.85;;;;
2022/05/14 05:19:22;;;;;;;17.4;15.85;;;;;;;14.19;83.99707;95778.85;;;;
2022/05/14 05:20:23;;;;;;;17.4;15.85;;;;;;;14.19;83.99707;95778.85;;;;
2022/05/14 05:21:24;;;;;;;16.1;14.7;;;;;;;14.73;83.42871;95774.42;;;;
2022/05/14 05:22:24;;;;;;;16.1;14.7;;;;;;;14.73;83.42871;95774.42;;;;
2022/05/14 05:23:25;;;;;;;16.1;14.7;;;;;;;14.73;83.42871;95774.42;;;;
2022/05/14 05:24:26;;;;;;;16.1;14.7;;;;;;;14.73;83.42871;95774.42;;;;
2022/05/14 05:25:27;;;;;;;16.1;14.7;;;;;;;14.73;83.42871;95774.42;;;;
2022/05/14 05:26:27;;;;;;;16.1;14.7;;;;;;;14.73;83.42871;95774.42;;;;
2022/05/14 05:27:28;;;;;;;16.1;14.7;;;;;;;14.73;83.42871;95774.42;;;;
2022/05/14 05:28:28;;;;;;;16.1;14.7;;;;;;;14.73;83.42871;95774.42;;;;
2022/05/14 05:29:29;;;;;;;16.1;14.7;;;;;;;14.73;83.42871;95774.42;;;;
2022/05/14 05:30:30;;;;;;;16.1;14.7;;;;;;;14.73;83.42871;95774.42;;;;
2022/05/14 05:31:31;;;;;;;16.1;14.7;;;;;;;14.73;83.42871;95774.42;;;;
2022/05/14 05:32:32;;;;;;;15.7;14.4;;;;;;;15.24;82.92773;95767.63;;;;
2022/05/14 05:33:33;;;;;;;15.7;14.4;;;;;;;15.24;82.92773;95767.63;;;;
2022/05/14 05:34:34;;;;;;;15.7;14.4;;;;;;;15.24;82.92773;95767.63;;;;
2022/05/14 05:35:34;;;;;;;15.7;14.4;;;;;;;15.24;82.92773;95767.63;;;;
2022/05/14 05:36:35;;;;;;;15.7;14.4;;;;;;;15.24;82.92773;95767.63;;;;
2022/05/14 05:37:35;;;;;;;15.7;14.4;;;;;;;15.24;82.92773;95767.63;;;;
2022/05/14 05:38:37;;;;;;;15.7;14.4;;;;;;;15.24;82.92773;95767.63;;;;
2022/05/14 05:39:38;;;;;;;15.7;14.4;;;;;;;15.24;82.92773;95767.63;;;;
2022/05/14 05:40:38;;;;;;;15.7;14.4;;;;;;;15.24;82.92773;95767.63;;;;
2022/05/14 05:41:39;;;;;;;15.7;14.4;;;;;;;15.24;82.92773;95767.63;;;;
2022/05/14 05:42:39;;;;;;;15.7;14.4;;;;;;;15.24;82.92773;95767.63;;;;
2022/05/14 05:43:40;;;;;;;13.95;12.7;;;;;;;15.75;82.51367;95788.76;;;;
2022/05/14 05:44:40;;;;;;;13.95;12.7;;;;;;;15.75;82.51367;95788.76;;;;
2022/05/14 05:45:41;;;;;;;13.95;12.7;;;;;;;15.75;82.51367;95788.76;;;;
2022/05/14 05:46:46;;;;;;;13.95;12.7;;;;;;;15.75;82.51367;95788.76;;;;
2022/05/14 05:47:46;;;;;;;13.95;12.7;;;;;;;15.75;82.51367;95788.76;;;;
2022/05/14 05:48:47;;;;;;;13.95;12.7;;;;;;;15.75;82.51367;95788.76;;;;
2022/05/14 05:49:48;;;;;;;13.95;12.7;;;;;;;15.75;82.51367;95788.76;;;;
2022/05/14 05:50:49;;;;;;;13.95;12.7;;;;;;;15.75;82.51367;95788.76;;;;
2022/05/14 05:51:49;;;;;;;13.95;12.7;;;;;;;15.75;82.51367;95788.76;;;;
2022/05/14 05:52:51;;;;;;;13.95;12.7;;;;;;;15.75;82.51367;95788.76;;;;
2022/05/14 05:59:07;;;;;;;15.45;14.05;;;;;;;16.05;82.36328;95793.03;;;;
2022/05/14 06:00:08;;;;;;;15.45;14.05;;;;;;;16.05;82.36328;95793.03;;;;
2022/05/14 06:01:12;;;;;;;15.45;14.05;;;;;;;16.05;82.36328;95793.03;;;;
2022/05/14 06:02:12;;;;;;;15.45;14.05;;;;;;;16.05;82.36328;95793.03;;;;
2022/05/14 06:03:13;;;;;;;15.45;14.05;;;;;;;16.05;82.36328;95793.03;;;;
2022/05/14 06:04:14;;;;;;;13.85;12.65;;;;;;;16.63;82.00293;95790.59;;;;
2022/05/14 06:05:15;;;;;;;13.85;12.65;;;;;;;16.63;82.00293;95790.59;;;;
2022/05/14 06:06:16;;;;;;;13.85;12.65;;;;;;;16.63;82.00293;95790.59;;;;